Eko 4 — SVAR8 — position and weather

sailwx.info

Track history (hours):
 
Tides and Currents Weather Stations Pressure Air Temp Water Temp Dewpoint Dewpoint Depression Visibility Wind Speed Wind Dir Waves Ship Positions

Eko 4

Last reported at 2016-Aug-29 20:11 UTC. Time now 2016-Aug-30 01:12 UTC.
Position N 37°55' E 023°05'.

Length 88 m; draft 5 m.

Type: Ship (hazmat cat A). MMSI: 240912000.

Date/timePositionNaut miles runAvg speedWind from/ knotsBaromVisibWave heightAir tempDewpointWater temp
2016-Aug-29 20:11N 37°55' E 023°05'2 2.4
2016-Aug-29 19:33N 37°54' E 023°07'9 8.8
2016-Aug-29 18:33N 37°52' E 023°18'9 9.3
2016-Aug-29 17:34N 37°52' E 023°29'4 4.1
2016-Aug-29 16:31N 37°55' E 023°33'0 0.0
2016-Aug-29 15:31N 37°55' E 023°33'0 0.0
2016-Aug-29 14:31N 37°55' E 023°33'0 0.0
2016-Aug-29 13:28N 37°55' E 023°33'0 0.0
2016-Aug-29 12:25N 37°55' E 023°33'0 0.0
2016-Aug-29 11:31N 37°55' E 023°33'0 0.0
2016-Aug-29 10:31N 37°55' E 023°33'0 0.1
2016-Aug-29 09:31N 37°55' E 023°33'0 0.0
2016-Aug-29 08:31N 37°55' E 023°33'0 0.1
2016-Aug-29 07:31N 37°55' E 023°33'0 0.0
2016-Aug-29 06:25N 37°55' E 023°33'0 0.0
2016-Aug-29 05:31N 37°55' E 023°33'0 0.0
2016-Aug-29 04:31N 37°55' E 023°33'0 0.0
2016-Aug-29 03:31N 37°55' E 023°33'0 0.0
2016-Aug-29 02:31N 37°55' E 023°33'0 0.0
2016-Aug-29 01:33N 37°55' E 023°33'0 0.0
2016-Aug-29 00:33N 37°55' E 023°33'0 0.0
2016-Aug-28 23:33N 37°55' E 023°33'0 0.0
2016-Aug-28 22:33N 37°55' E 023°33'0 0.0
2016-Aug-28 21:33N 37°55' E 023°33'1 0.7
2016-Aug-28 20:33N 37°55' E 023°34'8 7.6
2016-Aug-28 19:33N 37°49' E 023°40'10 9.2
2016-Aug-28 18:30N 37°40' E 023°46'  
2016-Aug-26 08:32N 37°35' E 023°49'8 8.4
2016-Aug-26 07:33N 37°41' E 023°42'9 9.4
2016-Aug-26 06:33N 37°49' E 023°36'25 0.8
2016-Aug-25 01:32N 37°54' E 023°06'1 0.0
2016-Aug-24 02:30N 37°55' E 023°07'0 0.0
2016-Aug-24 01:33N 37°55' E 023°07'0 0.0
2016-Aug-24 00:24N 37°55' E 023°07'0 0.0
2016-Aug-23 22:27N 37°55' E 023°07'0 0.0
2016-Aug-23 21:30N 37°55' E 023°07'0 0.0
2016-Aug-23 20:27N 37°55' E 023°07'0 0.0
2016-Aug-23 19:30N 37°55' E 023°07'0 0.0
2016-Aug-23 18:24N 37°55' E 023°07'0 0.1
2016-Aug-23 17:27N 37°55' E 023°07'0 0.0
2016-Aug-23 16:18N 37°55' E 023°07'4 1.0
2016-Aug-23 12:33N 37°53' E 023°11'9 9.2
2016-Aug-23 11:33N 37°51' E 023°22'9 8.9
2016-Aug-23 10:33N 37°50' E 023°33'7 7.2
2016-Aug-23 09:33N 37°47' E 023°41'  
2016-Aug-20 21:29N 37°33' E 023°53'8 8.8
2016-Aug-20 20:34N 37°39' E 023°45'9 8.9
2016-Aug-20 19:34N 37°46' E 023°39'8 8.3
2016-Aug-20 18:33N 37°50' E 023°29'20 0.9
2016-Aug-19 20:28N 37°55' E 023°05'  
Track history (hours):
 
Tides and Currents Weather Stations Pressure Air Temp Water Temp Dewpoint Dewpoint Depression Visibility Wind Speed Wind Dir Waves Ship Positions

Eko 4

Last reported at 2016-Aug-29 20:11 UTC. Time now 2016-Aug-30 01:12 UTC.
Position N 37°55' E 023°05'.

Length 88 m; draft 5 m.

Type: Ship (hazmat cat A). MMSI: 240912000.

Date/timePositionNaut miles runAvg speedWind from/ knotsBaromVisibWave heightAir tempDewpointWater temp
2016-Aug-29 20:11N 37°55' E 023°05'2 2.4
2016-Aug-29 19:33N 37°54' E 023°07'9 8.8
2016-Aug-29 18:33N 37°52' E 023°18'9 9.3
2016-Aug-29 17:34N 37°52' E 023°29'4 4.1
2016-Aug-29 16:31N 37°55' E 023°33'0 0.0
2016-Aug-29 15:31N 37°55' E 023°33'0 0.0
2016-Aug-29 14:31N 37°55' E 023°33'0 0.0
2016-Aug-29 13:28N 37°55' E 023°33'0 0.0
2016-Aug-29 12:25N 37°55' E 023°33'0 0.0
2016-Aug-29 11:31N 37°55' E 023°33'0 0.0
2016-Aug-29 10:31N 37°55' E 023°33'0 0.1
2016-Aug-29 09:31N 37°55' E 023°33'0 0.0
2016-Aug-29 08:31N 37°55' E 023°33'0 0.1
2016-Aug-29 07:31N 37°55' E 023°33'0 0.0
2016-Aug-29 06:25N 37°55' E 023°33'0 0.0
2016-Aug-29 05:31N 37°55' E 023°33'0 0.0
2016-Aug-29 04:31N 37°55' E 023°33'0 0.0
2016-Aug-29 03:31N 37°55' E 023°33'0 0.0
2016-Aug-29 02:31N 37°55' E 023°33'0 0.0
2016-Aug-29 01:33N 37°55' E 023°33'0 0.0
2016-Aug-29 00:33N 37°55' E 023°33'0 0.0
2016-Aug-28 23:33N 37°55' E 023°33'0 0.0
2016-Aug-28 22:33N 37°55' E 023°33'0 0.0
2016-Aug-28 21:33N 37°55' E 023°33'1 0.7
2016-Aug-28 20:33N 37°55' E 023°34'8 7.6
2016-Aug-28 19:33N 37°49' E 023°40'10 9.2
2016-Aug-28 18:30N 37°40' E 023°46'  
2016-Aug-26 08:32N 37°35' E 023°49'8 8.4
2016-Aug-26 07:33N 37°41' E 023°42'9 9.4
2016-Aug-26 06:33N 37°49' E 023°36'25 0.8
2016-Aug-25 01:32N 37°54' E 023°06'1 0.0
2016-Aug-24 02:30N 37°55' E 023°07'0 0.0
2016-Aug-24 01:33N 37°55' E 023°07'0 0.0
2016-Aug-24 00:24N 37°55' E 023°07'0 0.0
2016-Aug-23 22:27N 37°55' E 023°07'0 0.0
2016-Aug-23 21:30N 37°55' E 023°07'0 0.0
2016-Aug-23 20:27N 37°55' E 023°07'0 0.0
2016-Aug-23 19:30N 37°55' E 023°07'0 0.0
2016-Aug-23 18:24N 37°55' E 023°07'0 0.1
2016-Aug-23 17:27N 37°55' E 023°07'0 0.0
2016-Aug-23 16:18N 37°55' E 023°07'4 1.0
2016-Aug-23 12:33N 37°53' E 023°11'9 9.2
2016-Aug-23 11:33N 37°51' E 023°22'9 8.9
2016-Aug-23 10:33N 37°50' E 023°33'7 7.2
2016-Aug-23 09:33N 37°47' E 023°41'  
2016-Aug-20 21:29N 37°33' E 023°53'8 8.8
2016-Aug-20 20:34N 37°39' E 023°45'9 8.9
2016-Aug-20 19:34N 37°46' E 023°39'8 8.3
2016-Aug-20 18:33N 37°50' E 023°29'20 0.9
2016-Aug-19 20:28N 37°55' E 023°05'  

Dump ship's entire track history